Friday, February 24, 2017, 12:05 PM EST

KMDT, Harrisburg International Airport

Location: Middletown, PA, United States Lat: 40.2
Local Time: 12:05 PM EST (17:05 GMT) Lon: -76.767
Time Zone: US/Eastern Elev: 308 ft

Show me the last for .
Show Decoded

2017-02-24 10:56 METAR KMDT 241556Z 14005KT 10SM BKN250 21/12 A2988 =
2017-02-24 09:56 METAR KMDT 241456Z 13007KT 10SM SCT250 17/12 A2989 RMK AO2 SLP123 T01720117
                 50005 =
2017-02-24 08:56 METAR KMDT 241356Z 14005KT 10SM CLR 16/11 A2990 =
2017-02-24 07:56 METAR KMDT 241256Z 11003KT 10SM SCT150 13/11 A2990 =
2017-02-24 06:56 METAR KMDT 241156Z 11004KT 10SM SCT100 09/08 A2988 =
2017-02-24 05:56 METAR KMDT 241056Z 08003KT 10SM FEW100 12/10 A2987 RMK AO2 SLP113 T01170100 =
2017-02-24 04:56 METAR KMDT 240956Z 12005KT 10SM BKN100 BKN180 12/10 A2987 RMK AO2 SLP115
                 T01220100 =
2017-02-24 03:56 METAR KMDT 240856Z 15004KT 10SM BKN100 BKN180 12/10 A2986 =
2017-02-24 02:56 METAR KMDT 240756Z 12005KT 10SM BKN180 OVC250 11/10 A2986 RMK AO2 SLP111
                 T01110100 =
2017-02-24 01:56 METAR KMDT 240656Z 09004KT 10SM FEW180 BKN250 14/11 A2986 RMK AO2 SLP112
                 T01440111 =
2017-02-24 00:56 METAR KMDT 240556Z 11005KT 10SM FEW100 SCT250 13/10 A2986 RMK AO2 SLP110
                 T01330100 10194 20122 51003 =
2017-02-23 23:56 METAR KMDT 240456Z 16006KT 10SM SCT075 BKN110 14/11 A2985 RMK AO2 SLP109
                 T01440106 402390028 =
2017-02-23 22:56 METAR KMDT 240356Z 14005KT 10SM SCT070 SCT090 BKN110 15/11 A2985 =
2017-02-23 21:56 METAR KMDT 240256Z 00000KT 10SM BKN070 OVC080 17/11 A2985 =
2017-02-23 20:56 METAR KMDT 240156Z 16006KT 10SM BKN070 OVC110 18/11 A2984 RMK AO2 SLP105
                 T01780111 =
2017-02-23 19:56 METAR KMDT 240056Z 18005KT 10SM FEW070 BKN100 BKN250 19/11 A2982 =
2017-02-23 18:56 METAR KMDT 232356Z 19007KT 10SM SCT075 BKN250 19/11 A2981 =
2017-02-23 17:56 METAR KMDT 232256Z VRB04KT 10SM SCT065 BKN250 22/11 A2979 =
2017-02-23 16:56 METAR KMDT 232156Z VRB03KT 10SM SCT065 BKN250 22/11 A2977 RMK AO2 SLP083
                 T02220106 =
2017-02-23 15:56 METAR KMDT 232056Z 21010KT 10SM SCT060 BKN250 23/11 A2976 =
2017-02-23 14:56 METAR KMDT 231956Z 22009G19KT 190V300 10SM SCT065 SCT250 23/11 A2976 =
2017-02-23 13:56 METAR KMDT 231856Z 21007KT 10SM FEW070 SCT250 22/12 A2977 RMK AO2 SLP083
                 T02220117 =
2017-02-23 12:56 METAR KMDT 231756Z 15006KT 9SM FEW070 19/12 A2981 =

Support USWX by starting your Amazon purchase here.